createdAt,value
2018-02-22T00:00:05.341Z,81.00
2018-02-22T00:02:39.028Z,72.12
2018-02-22T00:05:14.038Z,64.93
2018-02-22T00:07:47.741Z,75.90
2018-02-22T00:10:22.439Z,68.72
2018-02-22T00:12:56.280Z,64.82
2018-02-22T00:15:30.832Z,84.03
2018-02-22T00:18:05.400Z,86.05
2018-02-22T00:20:39.902Z,62.83
2018-02-22T00:23:13.566Z,60.00
2018-02-22T00:25:47.371Z,76.18
2018-02-22T00:28:21.058Z,74.80
2018-02-22T00:30:54.776Z,67.95
2018-02-22T00:33:28.496Z,91.15
2018-02-22T00:36:02.227Z,71.53
2018-02-22T00:38:36.598Z,60.72
2018-02-22T00:41:10.258Z,69.93
2018-02-22T00:43:44.841Z,66.60
2018-02-22T00:46:20.568Z,61.60
2018-02-22T00:48:54.367Z,82.28
2018-02-22T00:51:28.315Z,72.25
2018-02-22T00:54:02.800Z,72.62
2018-02-22T00:56:36.564Z,88.60
2018-02-22T00:59:10.337Z,71.82
2018-02-22T01:01:45.784Z,75.70
2018-02-22T01:04:21.588Z,62.95
2018-02-22T01:06:55.373Z,74.03
2018-02-22T01:09:29.044Z,62.20
2018-02-22T01:12:03.654Z,80.05
2018-02-22T01:14:37.310Z,84.87
2018-02-22T01:17:11.162Z,75.28
2018-02-22T01:19:45.696Z,80.05
2018-02-22T01:22:20.260Z,88.30
2018-02-22T01:24:54.079Z,102.18
2018-02-22T01:27:27.908Z,123.38
2018-02-22T01:30:01.670Z,101.25
2018-02-22T01:32:35.284Z,100.80
2018-02-22T01:35:08.982Z,92.32
2018-02-22T01:37:44.563Z,96.45
2018-02-22T01:40:18.366Z,76.82
2018-02-22T01:42:51.996Z,85.05
2018-02-22T01:45:27.213Z,74.10
2018-02-22T01:48:00.785Z,67.22
2018-02-22T01:50:35.200Z,84.05
2018-02-22T01:53:10.811Z,90.87
2018-02-22T01:55:46.204Z,84.40
2018-02-22T01:58:20.916Z,79.37
2018-02-22T02:00:55.297Z,71.20
2018-02-22T02:03:29.748Z,76.30
2018-02-22T02:06:05.439Z,67.25
2018-02-22T02:08:42.865Z,89.50
2018-02-22T02:11:16.521Z,74.15
2018-02-22T02:13:50.364Z,88.80
2018-02-22T02:16:24.066Z,86.18
2018-02-22T02:18:57.810Z,77.00
2018-02-22T02:21:32.291Z,74.85
2018-02-22T02:24:05.925Z,79.03
2018-02-22T02:26:41.045Z,84.65
2018-02-22T02:29:14.932Z,71.15
2018-02-22T02:31:49.571Z,82.32
2018-02-22T02:34:23.373Z,90.62
2018-02-22T02:36:57.570Z,65.60
2018-02-22T02:39:31.186Z,86.72
2018-02-22T02:42:04.785Z,84.60
2018-02-22T02:44:38.553Z,72.50
2018-02-22T02:47:12.420Z,87.55
2018-02-22T02:49:47.731Z,73.18
2018-02-22T02:52:22.820Z,83.55
2018-02-22T02:54:57.205Z,73.60
2018-02-22T02:57:31.724Z,73.22
2018-02-22T03:00:05.420Z,85.60
2018-02-22T03:02:40.477Z,120.32
2018-02-22T03:05:15.258Z,102.70
2018-02-22T03:07:49.958Z,122.30
2018-02-22T03:10:24.531Z,123.78
2018-02-22T03:12:59.673Z,104.43
2018-02-22T03:15:34.253Z,72.32
2018-02-22T03:18:08.808Z,65.15
2018-02-22T03:20:43.263Z,64.78
2018-02-22T03:23:17.994Z,79.05
2018-02-22T03:25:51.574Z,84.07
2018-02-22T03:28:26.661Z,76.47
2018-02-22T03:31:00.433Z,90.95
2018-02-22T03:33:34.064Z,69.37
2018-02-22T03:36:08.583Z,78.78
2018-02-22T03:38:42.342Z,70.60
2018-02-22T03:41:16.952Z,75.15
2018-02-22T03:43:50.796Z,64.00
2018-02-22T03:46:24.590Z,70.57
2018-02-22T03:48:58.439Z,80.97
2018-02-22T03:51:33.023Z,78.53
2018-02-22T03:54:06.880Z,71.22
2018-02-22T03:56:40.643Z,83.65
2018-02-22T03:59:15.162Z,72.62
2018-02-22T04:01:49.695Z,67.10
2018-02-22T04:04:24.550Z,64.75
2018-02-22T04:06:58.382Z,77.10
2018-02-22T04:09:32.224Z,71.47
2018-02-22T04:12:05.991Z,66.07
2018-02-22T04:14:41.478Z,73.07
2018-02-22T04:17:15.200Z,56.08
2018-02-22T04:19:49.712Z,69.90
2018-02-22T04:22:23.467Z,73.05
2018-02-22T04:24:57.220Z,78.35
2018-02-22T04:27:31.015Z,70.97
2018-02-22T04:30:04.769Z,63.53
2018-02-22T04:32:39.212Z,136.62
2018-02-22T04:35:12.949Z,91.40
2018-02-22T04:37:46.849Z,94.45
2018-02-22T04:40:21.608Z,73.20
2018-02-22T04:42:55.411Z,73.75
2018-02-22T04:45:29.881Z,75.68
2018-02-22T04:48:03.729Z,54.70
2018-02-22T04:50:38.327Z,59.53
2018-02-22T04:53:12.181Z,73.75
2018-02-22T04:55:46.856Z,57.45
2018-02-22T04:58:20.672Z,49.75
2018-02-22T05:00:54.260Z,54.67
2018-02-22T05:03:27.998Z,63.87
2018-02-22T05:06:01.801Z,46.00
2018-02-22T05:08:37.478Z,44.38
2018-02-22T05:11:11.070Z,38.10
2018-02-22T05:13:44.711Z,62.13
2018-02-22T05:16:20.294Z,38.90
2018-02-22T05:18:53.935Z,46.50
2018-02-22T05:21:27.618Z,51.55
2018-02-22T05:24:01.507Z,41.83
2018-02-22T05:26:35.180Z,49.35
2018-02-22T05:29:08.834Z,46.70
2018-02-22T05:31:43.911Z,49.20
2018-02-22T05:34:17.665Z,35.80
2018-02-22T05:36:52.239Z,56.83
2018-02-22T05:39:27.135Z,45.90
2018-02-22T05:42:00.824Z,57.88
2018-02-22T05:44:34.655Z,49.22
2018-02-22T05:47:09.230Z,67.18
2018-02-22T05:49:42.970Z,90.72
2018-02-22T05:52:17.478Z,97.37
2018-02-22T05:54:51.241Z,76.00
2018-02-22T05:57:24.868Z,74.25
2018-02-22T05:59:58.700Z,58.92
2018-02-22T06:02:32.489Z,47.38
2018-02-22T06:05:06.356Z,49.33
2018-02-22T06:07:40.150Z,70.45
2018-02-22T06:10:13.767Z,58.03
2018-02-22T06:12:47.558Z,41.83
2018-02-22T06:15:21.192Z,63.38
2018-02-22T06:17:54.949Z,43.13
2018-02-22T06:20:28.760Z,46.67
2018-02-22T06:23:02.539Z,39.25
2018-02-22T06:25:36.429Z,44.80
2018-02-22T06:28:10.257Z,55.08
2018-02-22T06:30:44.804Z,47.80
2018-02-22T06:33:18.673Z,42.42
2018-02-22T06:35:52.400Z,45.53
2018-02-22T06:38:26.099Z,50.33
2018-02-22T06:40:59.813Z,47.20
2018-02-22T06:43:33.595Z,55.88
2018-02-22T06:46:07.388Z,56.20
2018-02-22T06:48:41.203Z,42.92
2018-02-22T06:51:14.974Z,59.00
2018-02-22T06:53:48.668Z,45.97
2018-02-22T06:56:22.486Z,51.50
2018-02-22T06:58:56.359Z,50.00
2018-02-22T07:01:31.187Z,49.65
2018-02-22T07:04:04.866Z,57.28
2018-02-22T07:06:39.449Z,60.80
2018-02-22T07:09:13.302Z,59.33
2018-02-22T07:11:47.082Z,64.60
2018-02-22T07:14:20.749Z,88.25
2018-02-22T07:16:54.625Z,94.10
2018-02-22T07:19:28.399Z,70.70
2018-02-22T07:22:02.182Z,55.55
2018-02-22T07:24:36.754Z,42.80
2018-02-22T07:27:11.249Z,49.92
2018-02-22T07:29:44.874Z,48.08
2018-02-22T07:32:18.729Z,44.83
2018-02-22T07:34:53.211Z,45.63
2018-02-22T07:37:26.915Z,51.53
2018-02-22T07:40:00.735Z,51.10
2018-02-22T07:42:35.357Z,50.83
2018-02-22T07:45:09.170Z,45.60
2018-02-22T07:47:43.047Z,49.60
2018-02-22T07:50:16.821Z,53.75
2018-02-22T07:52:50.622Z,65.25
2018-02-22T07:55:24.316Z,42.05
2018-02-22T07:57:58.914Z,47.30
2018-02-22T08:00:32.747Z,53.05
2018-02-22T08:03:07.338Z,43.92
2018-02-22T08:05:42.143Z,44.53
2018-02-22T08:08:15.787Z,48.15
2018-02-22T08:10:49.507Z,46.33
2018-02-22T08:13:23.203Z,46.72
2018-02-22T08:15:56.733Z,68.43
2018-02-22T08:18:30.374Z,91.10
2018-02-22T08:21:04.916Z,121.62
2018-02-22T08:23:38.714Z,84.90
2018-02-22T08:26:12.620Z,55.92
2018-02-22T08:28:47.215Z,55.67
2018-02-22T08:31:20.950Z,55.78
2018-02-22T08:33:54.588Z,44.55
2018-02-22T08:36:28.476Z,50.70
2018-02-22T08:39:02.140Z,48.33
2018-02-22T08:41:35.798Z,49.47
2018-02-22T08:44:09.547Z,52.92
2018-02-22T08:46:43.984Z,50.90
2018-02-22T08:49:17.582Z,58.22
2018-02-22T08:51:51.369Z,42.80
2018-02-22T08:54:25.293Z,52.13
2018-02-22T08:57:00.042Z,52.00
2018-02-22T08:59:33.716Z,59.88
2018-02-22T09:02:08.267Z,56.20
2018-02-22T09:04:42.081Z,49.83
2018-02-22T09:07:15.765Z,48.67
2018-02-22T09:09:49.497Z,47.40
2018-02-22T09:12:23.421Z,57.47
2018-02-22T09:14:57.220Z,47.00
2018-02-22T09:17:30.976Z,47.42
2018-02-22T09:20:04.861Z,82.60
2018-02-22T09:22:38.581Z,124.68
2018-02-22T09:25:12.219Z,110.45
2018-02-22T09:27:46.981Z,87.47
2018-02-22T09:30:22.097Z,73.25
2018-02-22T09:32:55.883Z,60.12
2018-02-22T09:35:29.567Z,46.78
2018-02-22T09:38:03.433Z,57.55
2018-02-22T09:40:37.119Z,40.95
2018-02-22T09:43:11.689Z,46.88
2018-02-22T09:45:45.425Z,50.03
2018-02-22T09:48:19.928Z,43.35
2018-02-22T09:50:54.371Z,47.45
2018-02-22T09:53:28.048Z,53.13
2018-02-22T09:56:02.715Z,46.95
2018-02-22T09:58:37.185Z,52.63
2018-02-22T10:01:10.905Z,50.90
2018-02-22T10:03:44.750Z,47.03
2018-02-22T10:06:18.566Z,62.05
2018-02-22T10:08:52.259Z,55.65
2018-02-22T10:11:26.032Z,44.05
2018-02-22T10:14:00.978Z,57.38
2018-02-22T10:16:35.368Z,50.05
2018-02-22T10:19:09.878Z,48.28
2018-02-22T10:21:44.296Z,63.53
2018-02-22T10:24:18.003Z,55.33
2018-02-22T10:26:53.812Z,85.28
2018-02-22T10:29:28.392Z,109.47
2018-02-22T10:32:03.285Z,68.37
2018-02-22T10:34:37.018Z,55.78
2018-02-22T10:37:11.605Z,53.85
2018-02-22T10:39:45.329Z,57.62
2018-02-22T10:42:18.932Z,46.03
2018-02-22T10:44:53.958Z,58.17
2018-02-22T10:47:27.767Z,55.38
2018-02-22T10:50:01.659Z,44.88
2018-02-22T10:52:36.684Z,61.50
2018-02-22T10:55:11.280Z,51.17
2018-02-22T10:57:46.138Z,47.50
2018-02-22T11:00:19.834Z,48.67
2018-02-22T11:02:53.584Z,50.58
2018-02-22T11:05:27.451Z,55.92
2018-02-22T11:08:02.035Z,44.38
2018-02-22T11:10:36.522Z,50.83
2018-02-22T11:13:10.305Z,59.15
2018-02-22T11:15:44.162Z,65.40
2018-02-22T11:18:18.020Z,55.95
2018-02-22T11:20:51.850Z,49.45
2018-02-22T11:23:26.402Z,52.30
2018-02-22T11:26:00.077Z,70.57
2018-02-22T11:28:33.913Z,87.82
2018-02-22T11:31:07.720Z,97.28
2018-02-22T11:33:42.161Z,82.30
2018-02-22T11:36:15.863Z,73.80
2018-02-22T11:38:50.061Z,50.55
2018-02-22T11:41:23.734Z,55.80
2018-02-22T11:43:57.576Z,45.88
2018-02-22T11:46:32.171Z,57.25
2018-02-22T11:49:06.034Z,38.50
2018-02-22T11:51:40.589Z,41.83
2018-02-22T11:54:15.154Z,44.15
2018-02-22T11:56:49.505Z,46.80
2018-02-22T11:59:23.996Z,55.05
2018-02-22T12:01:57.640Z,49.33
2018-02-22T12:04:32.195Z,45.03
2018-02-22T12:07:06.006Z,50.03
2018-02-22T12:09:40.530Z,57.45
2018-02-22T12:12:14.929Z,46.60
2018-02-22T12:14:48.797Z,50.30
2018-02-22T12:17:22.585Z,40.85
2018-02-22T12:19:56.533Z,45.58
2018-02-22T12:22:31.027Z,47.90
2018-02-22T12:25:04.619Z,55.45
2018-02-22T12:27:39.137Z,47.25
2018-02-22T12:30:12.830Z,49.63
2018-02-22T12:32:46.493Z,98.28
2018-02-22T12:35:20.108Z,87.97
2018-02-22T12:37:54.646Z,55.10
2018-02-22T12:40:28.469Z,47.03
2018-02-22T12:43:02.244Z,47.65
2018-02-22T12:45:35.872Z,43.58
2018-02-22T12:48:09.611Z,33.50
2018-02-22T12:50:43.262Z,45.88
2018-02-22T12:53:17.072Z,41.97
2018-02-22T12:55:51.487Z,45.50
2018-02-22T12:58:25.327Z,48.25
2018-02-22T13:00:59.038Z,43.47
2018-02-22T13:03:32.687Z,42.47
2018-02-22T13:06:07.332Z,33.78
2018-02-22T13:08:41.038Z,42.35
2018-02-22T13:11:14.844Z,37.67
2018-02-22T13:13:49.413Z,41.13
2018-02-22T13:16:23.249Z,54.40
2018-02-22T13:18:56.978Z,45.28
2018-02-22T13:21:30.630Z,52.15
2018-02-22T13:24:05.184Z,52.80
2018-02-22T13:26:39.802Z,43.28
2018-02-22T13:29:13.519Z,47.00
2018-02-22T13:31:47.398Z,45.28
2018-02-22T13:34:32.423Z,53.10
2018-02-22T13:37:17.991Z,82.85
2018-02-22T13:39:51.716Z,41.83
2018-02-22T13:42:26.212Z,49.20
2018-02-22T13:58:29.114Z,42.85
2018-02-22T14:01:15.019Z,50.25
2018-02-22T14:03:48.852Z,45.92
2018-02-22T14:06:23.223Z,53.53
2018-02-22T14:08:58.304Z,55.85
2018-02-22T14:11:31.949Z,56.88
2018-02-22T14:14:06.648Z,41.25
2018-02-22T14:16:40.455Z,59.85
2018-02-22T14:19:17.098Z,44.75
2018-02-22T14:21:51.531Z,50.97
2018-02-22T14:24:26.031Z,49.55
2018-02-22T14:26:59.749Z,67.82
2018-02-22T14:29:34.255Z,48.60
2018-02-22T14:32:08.606Z,57.58
2018-02-22T14:34:42.373Z,52.78
2018-02-22T14:37:16.027Z,66.85
2018-02-22T14:39:49.951Z,53.58
2018-02-22T14:42:23.795Z,49.70
2018-02-22T14:44:57.539Z,59.95
2018-02-22T14:47:31.400Z,75.18
2018-02-22T14:50:05.084Z,93.30
2018-02-22T14:52:38.894Z,119.95
2018-02-22T14:55:12.652Z,80.22
2018-02-22T14:57:46.251Z,56.60
2018-02-22T15:00:20.008Z,56.53
2018-02-22T15:02:53.630Z,49.08
2018-02-22T15:05:27.391Z,48.22
2018-02-22T15:08:01.164Z,63.25
2018-02-22T15:10:35.022Z,45.60
2018-02-22T15:13:08.764Z,58.15
2018-02-22T15:15:42.523Z,53.47
2018-02-22T15:18:16.309Z,45.00
2018-02-22T15:20:50.143Z,44.63
2018-02-22T15:23:24.639Z,38.25
2018-02-22T15:26:00.821Z,44.33
2018-02-22T15:28:34.431Z,60.10
2018-02-22T15:31:08.242Z,41.72
2018-02-22T15:33:42.105Z,51.45
2018-02-22T15:36:15.821Z,39.88
2018-02-22T15:38:49.445Z,56.90
2018-02-22T15:41:23.327Z,42.38
2018-02-22T15:43:57.889Z,50.25
2018-02-22T15:46:31.640Z,42.80
2018-02-22T15:49:05.501Z,47.50
2018-02-22T15:51:40.235Z,59.75
2018-02-22T15:54:14.820Z,52.70
2018-02-22T15:56:48.955Z,50.47
2018-02-22T15:59:23.460Z,55.00
2018-02-22T16:01:57.130Z,70.62
2018-02-22T16:04:31.853Z,66.68
2018-02-22T16:07:06.476Z,98.68
2018-02-22T16:09:40.319Z,98.97
2018-02-22T16:12:14.589Z,50.35
2018-02-22T16:14:48.271Z,56.67
2018-02-22T16:17:23.301Z,42.28
2018-02-22T16:19:57.101Z,50.38
2018-02-22T16:22:31.855Z,47.55
2018-02-22T16:25:05.673Z,49.03
2018-02-22T16:27:39.439Z,47.28
2018-02-22T16:30:13.185Z,52.88
2018-02-22T16:32:46.985Z,67.65
2018-02-22T16:35:21.697Z,45.92
2018-02-22T16:37:55.334Z,39.15
2018-02-22T16:40:30.156Z,49.78
2018-02-22T16:43:03.896Z,52.88
2018-02-22T16:45:37.985Z,48.97
2018-02-22T16:48:12.506Z,61.75
2018-02-22T16:50:46.909Z,59.40
2018-02-22T16:53:20.803Z,44.50
2018-02-22T16:55:54.929Z,54.58
2018-02-22T16:58:29.559Z,42.92
2018-02-22T17:01:03.275Z,66.10
2018-02-22T17:03:37.662Z,46.90
2018-02-22T17:06:12.785Z,58.03
2018-02-22T17:08:46.378Z,56.28
2018-02-22T17:11:20.104Z,53.22
2018-02-22T17:13:53.750Z,62.55
2018-02-22T17:16:27.629Z,112.60
2018-02-22T17:19:02.223Z,98.80
2018-02-22T17:21:36.304Z,74.28
2018-02-22T17:24:10.148Z,89.10
2018-02-22T17:26:49.577Z,73.32
2018-02-22T17:29:30.761Z,44.10
2018-02-22T17:32:10.351Z,59.75
2018-02-22T17:34:44.256Z,57.60
2018-02-22T17:37:20.324Z,52.80
2018-02-22T17:53:16.995Z,54.85
2018-02-22T17:55:50.832Z,41.28
2018-02-22T17:58:24.641Z,56.40
2018-02-22T18:00:58.236Z,48.55
2018-02-22T18:03:32.252Z,56.78
2018-02-22T18:06:05.819Z,50.03
2018-02-22T18:08:40.385Z,50.22
2018-02-22T18:11:14.134Z,48.85
2018-02-22T18:13:48.555Z,46.55
2018-02-22T18:16:23.138Z,50.70
2018-02-22T18:18:56.892Z,46.35
2018-02-22T18:21:31.426Z,67.32
2018-02-22T18:24:05.245Z,54.45
2018-02-22T18:26:38.945Z,53.35
2018-02-22T18:29:12.802Z,55.95
2018-02-22T18:31:46.415Z,62.47
2018-02-22T18:34:21.237Z,55.75
2018-02-22T18:36:56.619Z,64.28
2018-02-22T18:39:30.415Z,76.15
2018-02-22T18:42:10.549Z,62.58
2018-02-22T18:44:50.871Z,91.93
2018-02-22T18:47:25.593Z,110.18
2018-02-22T18:50:00.225Z,60.30
2018-02-22T18:52:34.870Z,64.68
2018-02-22T18:55:08.650Z,64.18
2018-02-22T18:57:42.299Z,54.63
2018-02-22T19:00:17.070Z,51.65
2018-02-22T19:02:50.752Z,44.17
2018-02-22T19:05:24.545Z,59.28
2018-02-22T19:07:58.496Z,65.75
2018-02-22T19:10:32.227Z,59.78
2018-02-22T19:13:06.024Z,50.72
2018-02-22T19:15:39.793Z,56.42
2018-02-22T19:18:14.393Z,53.13
2018-02-22T19:20:49.087Z,67.00
2018-02-22T19:23:22.758Z,48.80
2018-02-22T19:25:57.225Z,47.88
2018-02-22T19:28:31.715Z,52.67
2018-02-22T19:31:06.772Z,58.70
2018-02-22T19:33:40.469Z,68.45
2018-02-22T19:36:14.701Z,56.88
2018-02-22T19:38:48.398Z,60.03
2018-02-22T19:41:22.130Z,56.05
2018-02-22T19:43:55.801Z,57.35
2018-02-22T19:46:30.586Z,65.18
2018-02-22T19:49:04.312Z,51.67
2018-02-22T19:51:39.199Z,62.03
2018-02-22T19:54:12.915Z,63.47
2018-02-22T19:56:46.766Z,68.32
2018-02-22T19:59:22.260Z,54.35
2018-02-22T20:01:56.319Z,70.80
2018-02-22T20:04:29.863Z,87.62
2018-02-22T20:07:03.443Z,90.97
2018-02-22T20:09:37.120Z,72.60
2018-02-22T20:12:11.029Z,60.55
2018-02-22T20:14:45.530Z,63.47
2018-02-22T20:17:19.432Z,74.82
2018-02-22T20:19:53.316Z,61.65
2018-02-22T20:22:27.009Z,58.72
2018-02-22T20:25:00.845Z,62.85
2018-02-22T20:27:34.679Z,57.22
2018-02-22T20:30:08.378Z,68.40
2018-02-22T20:32:42.803Z,58.55
2018-02-22T20:35:16.414Z,58.55
2018-02-22T20:37:50.990Z,55.95
2018-02-22T20:40:24.672Z,60.97
2018-02-22T20:42:58.378Z,60.67
2018-02-22T20:45:32.793Z,57.88
2018-02-22T20:48:06.407Z,60.00
2018-02-22T20:50:40.669Z,59.55
2018-02-22T20:53:30.292Z,63.17
2018-02-22T20:56:04.701Z,70.05
2018-02-22T20:58:38.373Z,57.45
2018-02-22T21:01:12.101Z,58.45
2018-02-22T21:03:46.004Z,58.92
2018-02-22T21:06:19.702Z,70.93
2018-02-22T21:08:53.589Z,120.43
2018-02-22T21:11:27.369Z,89.60
2018-02-22T21:14:01.160Z,88.50
2018-02-22T21:16:35.729Z,79.97
2018-02-22T21:19:09.555Z,63.65
2018-02-22T21:21:44.153Z,61.20
2018-02-22T21:24:17.799Z,52.33
2018-02-22T21:26:52.405Z,58.72
2018-02-22T21:29:26.085Z,66.30
2018-02-22T21:32:01.200Z,60.42
2018-02-22T21:34:34.952Z,63.25
2018-02-22T21:37:08.780Z,63.05
2018-02-22T21:39:43.292Z,58.20
2018-02-22T21:42:17.151Z,68.65
2018-02-22T21:44:50.929Z,61.30
2018-02-22T21:47:24.643Z,58.97
2018-02-22T21:49:59.202Z,62.53
2018-02-22T21:52:33.596Z,56.28
2018-02-22T21:55:08.888Z,53.22
2018-02-22T21:57:43.402Z,68.10
2018-02-22T22:00:17.001Z,52.30
2018-02-22T22:02:50.852Z,55.97
2018-02-22T22:05:25.329Z,62.92
2018-02-22T22:08:00.161Z,63.72
2018-02-22T22:10:34.684Z,67.57
2018-02-22T22:13:09.158Z,75.10
2018-02-22T22:15:42.932Z,73.68
2018-02-22T22:18:16.732Z,72.47
2018-02-22T22:20:50.359Z,65.55
2018-02-22T22:23:24.192Z,70.07
2018-02-22T22:25:58.685Z,62.47
2018-02-22T22:28:33.619Z,60.60
2018-02-22T22:31:07.287Z,66.97
2018-02-22T22:33:40.945Z,62.05
2018-02-22T22:36:15.533Z,90.82
2018-02-22T22:38:49.273Z,88.80
2018-02-22T22:41:23.083Z,111.78
2018-02-22T22:43:56.953Z,121.85
2018-02-22T22:46:32.157Z,67.10
2018-02-22T22:49:07.429Z,64.82
2018-02-22T22:51:41.251Z,60.53
2018-02-22T22:54:15.183Z,62.45
2018-02-22T22:56:49.024Z,55.42
2018-02-22T22:59:22.797Z,60.38
2018-02-22T23:01:56.616Z,71.45
2018-02-22T23:04:30.375Z,56.10
2018-02-22T23:07:04.147Z,52.78
2018-02-22T23:09:37.769Z,63.47
2018-02-22T23:12:11.486Z,63.55
2018-02-22T23:14:45.293Z,61.15
2018-02-22T23:17:19.757Z,54.75
2018-02-22T23:19:53.595Z,70.10
2018-02-22T23:22:28.121Z,72.00
2018-02-22T23:25:02.737Z,66.82
2018-02-22T23:27:36.390Z,49.72
2018-02-22T23:30:10.104Z,62.55
2018-02-22T23:32:44.483Z,52.78
2018-02-22T23:35:18.137Z,57.53
2018-02-22T23:37:52.503Z,59.42
2018-02-22T23:40:32.484Z,56.72
2018-02-22T23:43:06.331Z,62.67
2018-02-22T23:45:40.138Z,53.70
2018-02-22T23:48:15.206Z,62.67
2018-02-22T23:50:49.869Z,62.38
2018-02-22T23:53:23.600Z,67.20
2018-02-22T23:55:57.356Z,89.68
2018-02-22T23:58:31.130Z,97.00
